sensor_id;sensor_type;location;lat;lon;timestamp;pressure;altitude;pressure_sealevel;temperature;humidity
71964;BME280;59834;52.124;5.422;2023-03-24T00:00:14;99818.06;;;10.89;100.00
71964;BME280;59834;52.124;5.422;2023-03-24T00:02:42;99809.25;;;10.90;100.00
71964;BME280;59834;52.124;5.422;2023-03-24T00:05:12;99796.06;;;10.91;100.00
71964;BME280;59834;52.124;5.422;2023-03-24T00:07:40;99796.06;;;10.91;100.00
71964;BME280;59834;52.124;5.422;2023-03-24T00:10:10;99792.47;;;10.92;100.00
71964;BME280;59834;52.124;5.422;2023-03-24T00:12:37;99776.91;;;10.91;100.00
71964;BME280;59834;52.124;5.422;2023-03-24T00:15:06;99785.59;;;10.91;100.00
71964;BME280;59834;52.124;5.422;2023-03-24T00:17:33;99781.19;;;10.92;100.00
71964;BME280;59834;52.124;5.422;2023-03-24T00:20:03;99781.06;;;10.93;100.00
71964;BME280;59834;52.124;5.422;2023-03-24T00:22:33;99768.91;;;10.92;100.00
71964;BME280;59834;52.124;5.422;2023-03-24T00:25:00;99766.19;;;10.94;100.00
71964;BME280;59834;52.124;5.422;2023-03-24T00:27:30;99760.38;;;10.90;100.00
71964;BME280;59834;52.124;5.422;2023-03-24T00:29:56;99749.19;;;10.88;100.00
71964;BME280;59834;52.124;5.422;2023-03-24T00:32:25;99743.81;;;10.90;100.00
71964;BME280;59834;52.124;5.422;2023-03-24T00:34:52;99741.19;;;10.90;100.00
71964;BME280;59834;52.124;5.422;2023-03-24T00:37:19;99731.59;;;10.90;100.00
71964;BME280;59834;52.124;5.422;2023-03-24T00:39:46;99740.94;;;10.93;100.00
71964;BME280;59834;52.124;5.422;2023-03-24T00:42:12;99734.88;;;10.92;100.00
71964;BME280;59834;52.124;5.422;2023-03-24T00:44:39;99727.16;;;10.91;100.00
71964;BME280;59834;52.124;5.422;2023-03-24T00:47:05;99730.47;;;10.93;100.00
71964;BME280;59834;52.124;5.422;2023-03-24T00:49:32;99726.66;;;10.97;100.00
71964;BME280;59834;52.124;5.422;2023-03-24T00:52:15;99716.19;;;10.97;100.00
71964;BME280;59834;52.124;5.422;2023-03-24T00:54:47;99720.31;;;10.99;100.00
71964;BME280;59834;52.124;5.422;2023-03-24T00:57:15;99718.53;;;11.00;100.00
71964;BME280;59834;52.124;5.422;2023-03-24T00:59:48;99716.63;;;11.02;100.00
71964;BME280;59834;52.124;5.422;2023-03-24T01:02:17;99714.00;;;11.02;100.00
71964;BME280;59834;52.124;5.422;2023-03-24T01:04:54;99712.09;;;11.04;100.00
71964;BME280;59834;52.124;5.422;2023-03-24T01:07:23;99706.72;;;11.05;100.00
71964;BME280;59834;52.124;5.422;2023-03-24T01:09:51;99693.63;;;11.05;100.00
71964;BME280;59834;52.124;5.422;2023-03-24T01:14:50;99695.03;;;11.09;100.00
71964;BME280;59834;52.124;5.422;2023-03-24T01:17:19;99687.06;;;11.11;100.00
71964;BME280;59834;52.124;5.422;2023-03-24T01:19:47;99694.78;;;11.13;100.00
71964;BME280;59834;52.124;5.422;2023-03-24T01:22:14;99686.66;;;11.16;100.00
71964;BME280;59834;52.124;5.422;2023-03-24T01:24:41;99694.41;;;11.17;100.00
71964;BME280;59834;52.124;5.422;2023-03-24T01:27:09;99682.25;;;11.16;100.00
71964;BME280;59834;52.124;5.422;2023-03-24T01:29:35;99674.41;;;11.16;100.00
71964;BME280;59834;52.124;5.422;2023-03-24T01:32:02;99684.88;;;11.16;100.00
71964;BME280;59834;52.124;5.422;2023-03-24T01:34:29;99677.72;;;11.18;100.00
71964;BME280;59834;52.124;5.422;2023-03-24T01:36:58;99666.44;;;11.18;100.00
71964;BME280;59834;52.124;5.422;2023-03-24T01:39:25;99657.59;;;11.19;100.00
71964;BME280;59834;52.124;5.422;2023-03-24T01:41:52;99654.88;;;11.20;100.00
71964;BME280;59834;52.124;5.422;2023-03-24T01:46:49;99659.25;;;11.20;100.00
71964;BME280;59834;52.124;5.422;2023-03-24T01:49:16;99654.88;;;11.20;100.00
71964;BME280;59834;52.124;5.422;2023-03-24T01:51:56;99657.75;;;11.17;100.00
71964;BME280;59834;52.124;5.422;2023-03-24T01:54:29;99644.41;;;11.20;100.00
71964;BME280;59834;52.124;5.422;2023-03-24T01:57:05;99647.69;;;11.22;100.00
71964;BME280;59834;52.124;5.422;2023-03-24T01:59:36;99641.63;;;11.22;100.00
71964;BME280;59834;52.124;5.422;2023-03-24T02:02:05;99651.84;;;11.25;100.00
71964;BME280;59834;52.124;5.422;2023-03-24T02:04:34;99645.78;;;11.24;100.00
71964;BME280;59834;52.124;5.422;2023-03-24T02:07:11;99647.69;;;11.22;100.00
71964;BME280;59834;52.124;5.422;2023-03-24T02:09:39;99633.78;;;11.22;100.00
71964;BME280;59834;52.124;5.422;2023-03-24T02:12:06;99629.25;;;11.24;100.00
71964;BME280;59834;52.124;5.422;2023-03-24T02:14:33;99622.31;;;11.23;100.00
71964;BME280;59834;52.124;5.422;2023-03-24T02:46:09;99697.78;;;11.08;100.00
71964;BME280;59834;52.124;5.422;2023-03-24T02:48:56;99707.56;;;11.06;100.00
71964;BME280;59834;52.124;5.422;2023-03-24T02:51:37;99710.19;;;11.06;100.00
71964;BME280;59834;52.124;5.422;2023-03-24T02:56:52;99715.66;;;11.03;100.00
71964;BME280;59834;52.124;5.422;2023-03-24T02:59:47;99727.09;;;11.02;100.00
71964;BME280;59834;52.124;5.422;2023-03-24T03:02:22;99748.31;;;10.99;100.00
71964;BME280;59834;52.124;5.422;2023-03-24T03:04:54;99734.31;;;10.89;100.00
71964;BME280;59834;52.124;5.422;2023-03-24T03:07:26;99756.56;;;10.83;100.00
71964;BME280;59834;52.124;5.422;2023-03-24T03:10:10;99758.75;;;10.78;99.54
71964;BME280;59834;52.124;5.422;2023-03-24T03:12:41;99759.50;;;10.69;99.28
71964;BME280;59834;52.124;5.422;2023-03-24T03:15:22;99761.09;;;10.60;99.07
71964;BME280;59834;52.124;5.422;2023-03-24T03:17:58;99772.16;;;10.52;98.43
71964;BME280;59834;52.124;5.422;2023-03-24T03:20:28;99764.09;;;10.44;97.74
71964;BME280;59834;52.124;5.422;2023-03-24T03:23:04;99768.03;;;10.38;97.79
71964;BME280;59834;52.124;5.422;2023-03-24T03:25:36;99783.13;;;10.35;97.84
71964;BME280;59834;52.124;5.422;2023-03-24T03:28:09;99785.28;;;10.30;97.39
71964;BME280;59834;52.124;5.422;2023-03-24T03:30:41;99793.00;;;10.31;98.10
71964;BME280;59834;52.124;5.422;2023-03-24T03:33:16;99780.38;;;10.25;96.81
71964;BME280;59834;52.124;5.422;2023-03-24T03:41:34;99796.56;;;10.08;96.73
71964;BME280;59834;52.124;5.422;2023-03-24T03:44:01;99811.06;;;10.01;96.84
71964;BME280;59834;52.124;5.422;2023-03-24T03:46:28;99810.56;;;9.96;96.98
71964;BME280;59834;52.124;5.422;2023-03-24T03:48:54;99812.72;;;9.90;97.56
71964;BME280;59834;52.124;5.422;2023-03-24T03:51:21;99828.28;;;9.92;97.01
71964;BME280;59834;52.124;5.422;2023-03-24T03:53:51;99830.78;;;9.94;97.47
71964;BME280;59834;52.124;5.422;2023-03-24T03:56:22;99844.44;;;9.97;97.19
71964;BME280;59834;52.124;5.422;2023-03-24T03:58:48;99842.91;;;9.95;96.81
71964;BME280;59834;52.124;5.422;2023-03-24T04:01:18;99850.13;;;9.91;97.55
71964;BME280;59834;52.124;5.422;2023-03-24T04:04:09;99855.50;;;9.89;97.20
71964;BME280;59834;52.124;5.422;2023-03-24T04:09:44;99863.66;;;9.85;97.23
71964;BME280;59834;52.124;5.422;2023-03-24T04:15:13;99857.16;;;9.79;98.45
71964;BME280;59834;52.124;5.422;2023-03-24T04:20:54;99865.91;;;9.67;99.26
71964;BME280;59834;52.124;5.422;2023-03-24T04:32:50;99892.09;;;9.54;100.00
71964;BME280;59834;52.124;5.422;2023-03-24T04:38:04;99903.75;;;9.50;100.00
71964;BME280;59834;52.124;5.422;2023-03-24T04:40:35;99891.63;;;9.49;99.91
71964;BME280;59834;52.124;5.422;2023-03-24T04:43:09;99907.41;;;9.48;99.74
71964;BME280;59834;52.124;5.422;2023-03-24T04:45:39;99919.50;;;9.49;99.98
71964;BME280;59834;52.124;5.422;2023-03-24T04:48:09;99919.72;;;9.45;100.00
71964;BME280;59834;52.124;5.422;2023-03-24T04:50:40;99924.94;;;9.45;100.00
71964;BME280;59834;52.124;5.422;2023-03-24T04:53:09;99923.91;;;9.48;99.95
71964;BME280;59834;52.124;5.422;2023-03-24T04:58:20;99917.84;;;9.48;99.99
71964;BME280;59834;52.124;5.422;2023-03-24T05:00:47;99927.56;;;9.45;99.64
71964;BME280;59834;52.124;5.422;2023-03-24T05:03:15;99939.19;;;9.41;99.86
71964;BME280;59834;52.124;5.422;2023-03-24T05:05:43;99946.31;;;9.39;99.98
71964;BME280;59834;52.124;5.422;2023-03-24T05:08:11;99947.59;;;9.34;99.33
71964;BME280;59834;52.124;5.422;2023-03-24T05:10:38;99955.53;;;9.32;99.42
71964;BME280;59834;52.124;5.422;2023-03-24T05:13:05;99962.66;;;9.30;99.97
71964;BME280;59834;52.124;5.422;2023-03-24T05:15:33;99957.19;;;9.33;99.54
71964;BME280;59834;52.124;5.422;2023-03-24T05:17:59;99960.03;;;9.30;99.27
71964;BME280;59834;52.124;5.422;2023-03-24T05:20:27;99969.75;;;9.28;99.02
71964;BME280;59834;52.124;5.422;2023-03-24T05:22:53;99972.25;;;9.30;99.12
71964;BME280;59834;52.124;5.422;2023-03-24T05:25:21;99978.75;;;9.24;99.23
71964;BME280;59834;52.124;5.422;2023-03-24T05:27:48;99980.00;;;9.18;98.63
71964;BME280;59834;52.124;5.422;2023-03-24T05:30:14;99989.75;;;9.16;98.92
71964;BME280;59834;52.124;5.422;2023-03-24T05:32:41;99978.56;;;9.14;98.75
71964;BME280;59834;52.124;5.422;2023-03-24T05:35:12;99991.31;;;9.19;98.54
71964;BME280;59834;52.124;5.422;2023-03-24T05:37:38;99992.22;;;9.18;97.89
71964;BME280;59834;52.124;5.422;2023-03-24T05:40:05;99994.00;;;9.17;98.08
71964;BME280;59834;52.124;5.422;2023-03-24T05:42:32;100000.28;;;9.15;97.95
71964;BME280;59834;52.124;5.422;2023-03-24T05:44:59;100001.03;;;9.17;98.04
71964;BME280;59834;52.124;5.422;2023-03-24T05:47:25;100005.50;;;9.15;98.41
71964;BME280;59834;52.124;5.422;2023-03-24T05:49:52;100011.81;;;9.12;98.21
71964;BME280;59834;52.124;5.422;2023-03-24T05:52:19;100004.06;;;9.11;98.66
71964;BME280;59834;52.124;5.422;2023-03-24T05:54:48;100011.19;;;9.09;97.98
71964;BME280;59834;52.124;5.422;2023-03-24T05:57:18;100014.28;;;9.14;98.24
71964;BME280;59834;52.124;5.422;2023-03-24T05:59:46;100006.13;;;9.18;98.22
71964;BME280;59834;52.124;5.422;2023-03-24T06:02:13;100012.91;;;9.21;97.72
71964;BME280;59834;52.124;5.422;2023-03-24T06:04:40;100021.91;;;9.17;98.54
71964;BME280;59834;52.124;5.422;2023-03-24T06:07:11;100016.47;;;9.20;98.24
71964;BME280;59834;52.124;5.422;2023-03-24T06:09:38;100029.53;;;9.20;98.20
71964;BME280;59834;52.124;5.422;2023-03-24T06:12:08;100025.25;;;9.19;97.69
71964;BME280;59834;52.124;5.422;2023-03-24T06:14:35;100033.59;;;9.24;98.21
71964;BME280;59834;52.124;5.422;2023-03-24T06:17:01;100032.63;;;9.25;98.63
71964;BME280;59834;52.124;5.422;2023-03-24T06:19:28;100028.03;;;9.29;97.79
71964;BME280;59834;52.124;5.422;2023-03-24T06:21:56;100027.94;;;9.30;98.24
71964;BME280;59834;52.124;5.422;2023-03-24T06:24:28;100033.66;;;9.35;98.02
71964;BME280;59834;52.124;5.422;2023-03-24T06:26:55;100039.81;;;9.34;98.39
71964;BME280;59834;52.124;5.422;2023-03-24T06:29:28;100036.50;;;9.32;97.89
71964;BME280;59834;52.124;5.422;2023-03-24T06:31:56;100037.22;;;9.34;98.52
71964;BME280;59834;52.124;5.422;2023-03-24T06:34:22;100033.16;;;9.30;97.82
71964;BME280;59834;52.124;5.422;2023-03-24T06:36:51;100029.38;;;9.34;97.03
71964;BME280;59834;52.124;5.422;2023-03-24T06:39:18;100041.38;;;9.37;96.80
71964;BME280;59834;52.124;5.422;2023-03-24T06:41:44;100042.84;;;9.41;97.09
71964;BME280;59834;52.124;5.422;2023-03-24T06:44:11;100045.09;;;9.45;96.48
71964;BME280;59834;52.124;5.422;2023-03-24T06:46:37;100043.44;;;9.44;95.78
71964;BME280;59834;52.124;5.422;2023-03-24T06:49:05;100053.91;;;9.44;96.37
71964;BME280;59834;52.124;5.422;2023-03-24T06:51:32;100051.91;;;9.48;96.34
71964;BME280;59834;52.124;5.422;2023-03-24T06:53:58;100055.25;;;9.50;96.28
71964;BME280;59834;52.124;5.422;2023-03-24T06:56:25;100060.97;;;9.55;95.74
71964;BME280;59834;52.124;5.422;2023-03-24T06:58:52;100069.19;;;9.62;95.93
71964;BME280;59834;52.124;5.422;2023-03-24T07:01:19;100069.31;;;9.60;95.31
71964;BME280;59834;52.124;5.422;2023-03-24T07:03:45;100068.16;;;9.64;94.64
71964;BME280;59834;52.124;5.422;2023-03-24T07:06:13;100072.94;;;9.71;94.69
71964;BME280;59834;52.124;5.422;2023-03-24T07:08:40;100080.44;;;9.75;94.25
71964;BME280;59834;52.124;5.422;2023-03-24T07:11:06;100077.28;;;9.83;94.36
71964;BME280;59834;52.124;5.422;2023-03-24T07:13:33;100085.75;;;9.86;93.15
71964;BME280;59834;52.124;5.422;2023-03-24T07:16:00;100090.97;;;9.86;92.37
71964;BME280;59834;52.124;5.422;2023-03-24T07:18:26;100085.75;;;9.86;92.48
71964;BME280;59834;52.124;5.422;2023-03-24T07:20:53;100082.28;;;9.86;92.03
71964;BME280;59834;52.124;5.422;2023-03-24T07:23:19;100087.97;;;10.04;91.18
71964;BME280;59834;52.124;5.422;2023-03-24T07:25:46;100095.91;;;10.02;90.21
71964;BME280;59834;52.124;5.422;2023-03-24T07:28:13;100099.88;;;10.19;90.86
71964;BME280;59834;52.124;5.422;2023-03-24T07:30:39;100106.88;;;10.31;89.48
71964;BME280;59834;52.124;5.422;2023-03-24T07:33:07;100098.53;;;10.26;89.74
71964;BME280;59834;52.124;5.422;2023-03-24T07:35:36;100110.00;;;10.36;90.12
71964;BME280;59834;52.124;5.422;2023-03-24T07:38:02;100113.06;;;10.30;89.62
71964;BME280;59834;52.124;5.422;2023-03-24T07:40:29;100112.53;;;10.25;89.63
71964;BME280;59834;52.124;5.422;2023-03-24T07:43:00;100112.53;;;10.25;89.55
71964;BME280;59834;52.124;5.422;2023-03-24T07:45:28;100102.38;;;10.33;89.38
71964;BME280;59834;52.124;5.422;2023-03-24T07:47:54;100123.16;;;10.35;88.73
71964;BME280;59834;52.124;5.422;2023-03-24T07:50:28;100110.38;;;10.43;88.54
71964;BME280;59834;52.124;5.422;2023-03-24T07:52:54;100108.84;;;10.52;87.35
71964;BME280;59834;52.124;5.422;2023-03-24T07:55:25;100121.59;;;10.56;87.85
71964;BME280;59834;52.124;5.422;2023-03-24T07:57:52;100116.97;;;10.71;86.89
71964;BME280;59834;52.124;5.422;2023-03-24T08:00:19;100127.91;;;10.76;86.88
71964;BME280;59834;52.124;5.422;2023-03-24T08:02:48;100131.50;;;10.75;86.58
71964;BME280;59834;52.124;5.422;2023-03-24T08:05:15;100133.88;;;10.78;86.50
71964;BME280;59834;52.124;5.422;2023-03-24T08:07:46;100134.00;;;10.77;86.99
71964;BME280;59834;52.124;5.422;2023-03-24T08:10:20;100128.19;;;10.73;85.73
71964;BME280;59834;52.124;5.422;2023-03-24T08:12:48;100127.00;;;10.89;85.37
71964;BME280;59834;52.124;5.422;2023-03-24T08:15:15;100122.72;;;10.99;83.69
71964;BME280;59834;52.124;5.422;2023-03-24T08:17:43;100132.97;;;11.02;83.64
71964;BME280;59834;52.124;5.422;2023-03-24T08:20:11;100138.81;;;11.05;83.96
71964;BME280;59834;52.124;5.422;2023-03-24T08:22:42;100121.34;;;11.17;82.78
71964;BME280;59834;52.124;5.422;2023-03-24T08:25:11;100140.84;;;11.36;82.95
71964;BME280;59834;52.124;5.422;2023-03-24T08:27:39;100126.78;;;11.25;81.76
71964;BME280;59834;52.124;5.422;2023-03-24T08:30:09;100135.50;;;11.37;81.69
71964;BME280;59834;52.124;5.422;2023-03-24T08:32:36;100134.19;;;11.31;82.00
71964;BME280;59834;52.124;5.422;2023-03-24T08:35:03;100139.06;;;11.25;81.89
71964;BME280;59834;52.124;5.422;2023-03-24T08:37:30;100153.25;;;11.33;81.64
71964;BME280;59834;52.124;5.422;2023-03-24T08:39:57;100144.31;;;11.25;82.02
71964;BME280;59834;52.124;5.422;2023-03-24T08:42:29;100153.59;;;11.29;81.93
71964;BME280;59834;52.124;5.422;2023-03-24T08:44:56;100145.16;;;11.48;80.41
71964;BME280;59834;52.124;5.422;2023-03-24T08:47:22;100158.94;;;11.39;79.86
71964;BME280;59834;52.124;5.422;2023-03-24T08:49:49;100162.66;;;11.25;79.77
71964;BME280;59834;52.124;5.422;2023-03-24T08:52:16;100171.69;;;11.21;79.53
71964;BME280;59834;52.124;5.422;2023-03-24T08:54:43;100175.25;;;11.08;80.36
71964;BME280;59834;52.124;5.422;2023-03-24T08:57:09;100176.53;;;11.03;80.19
71964;BME280;59834;52.124;5.422;2023-03-24T08:59:36;100182.63;;;11.03;80.40
71964;BME280;59834;52.124;5.422;2023-03-24T09:02:03;100181.91;;;11.13;81.10
71964;BME280;59834;52.124;5.422;2023-03-24T09:04:29;100179.88;;;11.16;80.77
71964;BME280;59834;52.124;5.422;2023-03-24T09:06:56;100184.56;;;11.46;81.22
71964;BME280;59834;52.124;5.422;2023-03-24T09:09:29;100196.81;;;11.79;78.84
71964;BME280;59834;52.124;5.422;2023-03-24T09:11:55;100192.78;;;11.64;77.46
71964;BME280;59834;52.124;5.422;2023-03-24T09:14:22;100195.91;;;11.47;77.58
71964;BME280;59834;52.124;5.422;2023-03-24T09:16:49;100186.38;;;11.57;77.97
71964;BME280;59834;52.124;5.422;2023-03-24T09:19:17;100193.25;;;11.80;77.95
71964;BME280;59834;52.124;5.422;2023-03-24T09:21:45;100201.25;;;11.90;77.81
71964;BME280;59834;52.124;5.422;2023-03-24T09:24:12;100203.28;;;11.87;77.46
71964;BME280;59834;52.124;5.422;2023-03-24T09:26:38;100210.66;;;12.04;77.17
71964;BME280;59834;52.124;5.422;2023-03-24T09:29:05;100213.84;;;12.19;76.83
71964;BME280;59834;52.124;5.422;2023-03-24T09:31:33;100202.03;;;12.24;76.29
71964;BME280;59834;52.124;5.422;2023-03-24T09:34:00;100191.81;;;12.42;76.66
71964;BME280;59834;52.124;5.422;2023-03-24T09:36:29;100197.78;;;12.44;76.25
71964;BME280;59834;52.124;5.422;2023-03-24T09:38:56;100208.38;;;12.54;75.25
71964;BME280;59834;52.124;5.422;2023-03-24T09:41:27;100199.69;;;12.74;75.69
71964;BME280;59834;52.124;5.422;2023-03-24T09:44:01;100192.97;;;12.82;74.82
71964;BME280;59834;52.124;5.422;2023-03-24T09:46:45;100206.69;;;12.85;74.68
71964;BME280;59834;52.124;5.422;2023-03-24T09:49:16;100188.22;;;12.76;72.08
71964;BME280;59834;52.124;5.422;2023-03-24T09:51:52;100203.50;;;12.70;72.41
71964;BME280;59834;52.124;5.422;2023-03-24T09:54:39;100211.03;;;12.75;73.09
71964;BME280;59834;52.124;5.422;2023-03-24T09:57:21;100204.03;;;13.06;71.25
71964;BME280;59834;52.124;5.422;2023-03-24T09:59:49;100207.44;;;13.18;70.53
71964;BME280;59834;52.124;5.422;2023-03-24T10:02:18;100213.66;;;13.38;68.23
71964;BME280;59834;52.124;5.422;2023-03-24T10:04:45;100211.25;;;13.25;67.13
71964;BME280;59834;52.124;5.422;2023-03-24T10:07:31;100215.72;;;13.34;67.44
71964;BME280;59834;52.124;5.422;2023-03-24T10:10:00;100228.16;;;13.11;66.85
71964;BME280;59834;52.124;5.422;2023-03-24T10:12:39;100228.69;;;12.94;67.42
71964;BME280;59834;52.124;5.422;2023-03-24T10:15:25;100222.75;;;12.92;68.45
71964;BME280;59834;52.124;5.422;2023-03-24T10:18:29;100216.84;;;13.20;67.29
71964;BME280;59834;52.124;5.422;2023-03-24T10:21:25;100210.78;;;13.72;68.55
71964;BME280;59834;52.124;5.422;2023-03-24T10:31:50;100217.16;;;14.19;63.40
71964;BME280;59834;52.124;5.422;2023-03-24T10:34:17;100223.94;;;13.72;64.96
71964;BME280;59834;52.124;5.422;2023-03-24T10:36:44;100222.97;;;13.42;65.83
71964;BME280;59834;52.124;5.422;2023-03-24T10:39:15;100213.16;;;13.02;68.31
71964;BME280;59834;52.124;5.422;2023-03-24T10:41:50;100231.00;;;12.87;70.57
71964;BME280;59834;52.124;5.422;2023-03-24T10:44:19;100222.19;;;13.09;70.74
71964;BME280;59834;52.124;5.422;2023-03-24T10:46:49;100216.84;;;12.79;69.32
71964;BME280;59834;52.124;5.422;2023-03-24T10:49:19;100226.53;;;12.46;70.76
71964;BME280;59834;52.124;5.422;2023-03-24T10:51:49;100228.38;;;12.23;72.30
71964;BME280;59834;52.124;5.422;2023-03-24T10:54:24;100225.88;;;12.10;74.08
71964;BME280;59834;52.124;5.422;2023-03-24T10:59:35;100232.94;;;12.53;74.24
71964;BME280;59834;52.124;5.422;2023-03-24T11:04:36;100234.41;;;12.46;73.29
71964;BME280;59834;52.124;5.422;2023-03-24T11:09:44;100230.81;;;12.47;73.23
71964;BME280;59834;52.124;5.422;2023-03-24T11:12:32;100243.34;;;12.43;73.51
71964;BME280;59834;52.124;5.422;2023-03-24T11:15:19;100239.16;;;12.52;73.58
71964;BME280;59834;52.124;5.422;2023-03-24T11:23:30;100228.22;;;13.42;72.34
71964;BME280;59834;52.124;5.422;2023-03-24T11:26:22;100218.75;;;13.30;71.92
71964;BME280;59834;52.124;5.422;2023-03-24T11:28:56;100228.00;;;13.55;72.67
71964;BME280;59834;52.124;5.422;2023-03-24T11:31:26;100232.66;;;13.72;69.77
71964;BME280;59834;52.124;5.422;2023-03-24T11:39:09;100211.03;;;13.38;70.41
71964;BME280;59834;52.124;5.422;2023-03-24T11:41:50;100230.72;;;13.02;71.40
71964;BME280;59834;52.124;5.422;2023-03-24T11:46:54;100239.19;;;12.73;72.64
71964;BME280;59834;52.124;5.422;2023-03-24T11:49:25;100226.94;;;12.94;72.11
71964;BME280;59834;52.124;5.422;2023-03-24T11:51:54;100236.16;;;12.89;72.22
71964;BME280;59834;52.124;5.422;2023-03-24T11:54:25;100246.72;;;12.66;72.82
71964;BME280;59834;52.124;5.422;2023-03-24T11:56:58;100244.59;;;12.71;73.86
71964;BME280;59834;52.124;5.422;2023-03-24T11:59:47;100240.81;;;12.53;73.91
71964;BME280;59834;52.124;5.422;2023-03-24T12:02:32;100253.66;;;12.67;75.51
71964;BME280;59834;52.124;5.422;2023-03-24T12:05:16;100246.63;;;12.68;74.38
71964;BME280;59834;52.124;5.422;2023-03-24T12:08:06;100244.69;;;12.70;75.24
71964;BME280;59834;52.124;5.422;2023-03-24T12:11:02;100259.53;;;12.60;76.70
71964;BME280;59834;52.124;5.422;2023-03-24T12:13:36;100234.53;;;12.77;76.52
71964;BME280;59834;52.124;5.422;2023-03-24T12:19:20;100241.91;;;12.83;75.75
71964;BME280;59834;52.124;5.422;2023-03-24T12:27:00;100240.66;;;12.66;75.92
71964;BME280;59834;52.124;5.422;2023-03-24T12:29:55;100248.16;;;12.70;76.61
71964;BME280;59834;52.124;5.422;2023-03-24T12:32:32;100231.44;;;12.71;77.11
71964;BME280;59834;52.124;5.422;2023-03-24T12:35:26;100228.91;;;13.02;76.34
71964;BME280;59834;52.124;5.422;2023-03-24T12:41:02;100224.97;;;13.17;72.49
71964;BME280;59834;52.124;5.422;2023-03-24T12:57:38;100238.00;;;12.34;78.76
71964;BME280;59834;52.124;5.422;2023-03-24T13:03:00;100229.97;;;11.80;79.85
71964;BME280;59834;52.124;5.422;2023-03-24T13:05:32;100232.81;;;11.66;83.54
71964;BME280;59834;52.124;5.422;2023-03-24T13:08:11;100234.47;;;11.33;83.94
71964;BME280;59834;52.124;5.422;2023-03-24T13:10:42;100228.28;;;11.35;83.73
71964;BME280;59834;52.124;5.422;2023-03-24T13:13:21;100233.50;;;11.35;83.46
71964;BME280;59834;52.124;5.422;2023-03-24T13:16:02;100228.28;;;11.35;82.87
71964;BME280;59834;52.124;5.422;2023-03-24T13:18:38;100238.06;;;11.44;82.49
71964;BME280;59834;52.124;5.422;2023-03-24T13:21:17;100230.19;;;11.55;83.61
71964;BME280;59834;52.124;5.422;2023-03-24T13:26:39;100227.34;;;11.92;84.16
71964;BME280;59834;52.124;5.422;2023-03-24T13:32:30;100223.94;;;12.35;83.33
71964;BME280;59834;52.124;5.422;2023-03-24T13:37:37;100220.06;;;12.50;81.45
71964;BME280;59834;52.124;5.422;2023-03-24T13:40:09;100215.47;;;12.63;80.41
71964;BME280;59834;52.124;5.422;2023-03-24T13:42:47;100214.00;;;12.70;79.93
71964;BME280;59834;52.124;5.422;2023-03-24T13:45:32;100204.03;;;12.64;80.96
71964;BME280;59834;52.124;5.422;2023-03-24T13:51:47;100218.06;;;12.42;80.64
71964;BME280;59834;52.124;5.422;2023-03-24T13:53:52;100212.53;;;12.24;80.43
71964;BME280;59834;52.124;5.422;2023-03-24T13:56:36;100219.44;;;12.25;81.74
71964;BME280;59834;52.124;5.422;2023-03-24T13:59:40;100221.56;;;12.32;81.26
71964;BME280;59834;52.124;5.422;2023-03-24T14:02:40;100231.63;;;12.15;82.94
71964;BME280;59834;52.124;5.422;2023-03-24T14:08:14;100249.63;;;11.86;80.04
71964;BME280;59834;52.124;5.422;2023-03-24T14:10:47;100236.16;;;11.68;81.34
71964;BME280;59834;52.124;5.422;2023-03-24T14:15:55;100248.91;;;11.50;83.14
71964;BME280;59834;52.124;5.422;2023-03-24T14:25:59;100224.38;;;11.85;84.51
71964;BME280;59834;52.124;5.422;2023-03-24T14:28:35;100224.22;;;12.09;82.95
71964;BME280;59834;52.124;5.422;2023-03-24T14:39:45;100214.03;;;12.38;81.73
71964;BME280;59834;52.124;5.422;2023-03-24T14:45:36;100202.56;;;12.39;80.25
71964;BME280;59834;52.124;5.422;2023-03-24T14:48:00;100198.78;;;12.32;80.01
71964;BME280;59834;52.124;5.422;2023-03-24T14:50:28;100201.94;;;12.15;79.45
71964;BME280;59834;52.124;5.422;2023-03-24T14:53:01;100203.97;;;12.00;79.62
71964;BME280;59834;52.124;5.422;2023-03-24T14:55:29;100200.63;;;12.09;80.25
71964;BME280;59834;52.124;5.422;2023-03-24T14:58:03;100204.91;;;12.10;79.32
71964;BME280;59834;52.124;5.422;2023-03-24T15:00:38;100201.34;;;12.11;79.36
71964;BME280;59834;52.124;5.422;2023-03-24T15:06:18;100200.59;;;12.53;78.76
71964;BME280;59834;52.124;5.422;2023-03-24T15:08:51;100195.38;;;12.73;76.13
71964;BME280;59834;52.124;5.422;2023-03-24T15:11:27;100197.31;;;12.92;74.74
71964;BME280;59834;52.124;5.422;2023-03-24T15:13:55;100178.75;;;13.05;73.65
71964;BME280;59834;52.124;5.422;2023-03-24T15:16:25;100181.69;;;13.12;73.94
71964;BME280;59834;52.124;5.422;2023-03-24T15:18:57;100187.78;;;13.12;73.58
71964;BME280;59834;52.124;5.422;2023-03-24T15:21:38;100175.09;;;12.76;73.41
71964;BME280;59834;52.124;5.422;2023-03-24T15:26:52;100172.78;;;12.61;72.77
71964;BME280;59834;52.124;5.422;2023-03-24T15:29:19;100167.84;;;12.68;73.65
71964;BME280;59834;52.124;5.422;2023-03-24T15:31:48;100168.28;;;12.52;73.03
71964;BME280;59834;52.124;5.422;2023-03-24T15:34:56;100173.03;;;12.58;73.88
71964;BME280;59834;52.124;5.422;2023-03-24T15:37:29;100172.22;;;12.58;73.24
71964;BME280;59834;52.124;5.422;2023-03-24T15:39:56;100179.53;;;12.64;74.12
71964;BME280;59834;52.124;5.422;2023-03-24T15:42:41;100171.63;;;12.54;74.59
71964;BME280;59834;52.124;5.422;2023-03-24T15:45:20;100167.03;;;12.35;74.51
71964;BME280;59834;52.124;5.422;2023-03-24T15:47:50;100151.41;;;12.34;75.46
71964;BME280;59834;52.124;5.422;2023-03-24T15:53:05;100160.78;;;12.47;76.02
71964;BME280;59834;52.124;5.422;2023-03-24T15:55:33;100164.03;;;12.40;76.16
71964;BME280;59834;52.124;5.422;2023-03-24T15:58:19;100158.13;;;12.26;76.88
71964;BME280;59834;52.124;5.422;2023-03-24T16:01:01;100148.09;;;12.20;77.26
71964;BME280;59834;52.124;5.422;2023-03-24T16:03:32;100154.56;;;12.16;78.13
71964;BME280;59834;52.124;5.422;2023-03-24T16:06:12;100158.59;;;12.20;77.26